sensor_id;sensor_type;location;lat;lon;timestamp;pressure;altitude;pressure_sealevel;temperature;humidity
34235;BME280;20500;49.856;20.290;2023-01-15T00:03:05;98528.50;;;3.74;71.91
34235;BME280;20500;49.856;20.290;2023-01-15T00:06:11;98520.16;;;3.75;71.80
34235;BME280;20500;49.856;20.290;2023-01-15T00:09:16;98521.55;;;3.77;71.64
34235;BME280;20500;49.856;20.290;2023-01-15T00:12:23;98524.45;;;3.78;71.66
34235;BME280;20500;49.856;20.290;2023-01-15T00:15:29;98527.92;;;3.78;71.63
34235;BME280;20500;49.856;20.290;2023-01-15T00:18:35;98529.39;;;3.83;71.47
34235;BME280;20500;49.856;20.290;2023-01-15T00:21:41;98538.59;;;3.86;71.33
34235;BME280;20500;49.856;20.290;2023-01-15T00:24:47;98537.00;;;3.86;71.29
34235;BME280;20500;49.856;20.290;2023-01-15T00:28:13;98531.98;;;3.84;71.15
34235;BME280;20500;49.856;20.290;2023-01-15T00:31:19;98524.65;;;3.85;71.18
34235;BME280;20500;49.856;20.290;2023-01-15T00:34:25;98519.79;;;3.87;71.10
34235;BME280;20500;49.856;20.290;2023-01-15T00:37:31;98521.42;;;3.96;70.84
34235;BME280;20500;49.856;20.290;2023-01-15T00:40:37;98518.25;;;3.99;70.67
34235;BME280;20500;49.856;20.290;2023-01-15T00:43:43;98521.44;;;4.00;70.65
34235;BME280;20500;49.856;20.290;2023-01-15T00:46:49;98526.36;;;4.04;70.49
34235;BME280;20500;49.856;20.290;2023-01-15T00:49:55;98531.80;;;4.13;70.54
34235;BME280;20500;49.856;20.290;2023-01-15T00:53:00;98526.10;;;4.16;70.31
34235;BME280;20500;49.856;20.290;2023-01-15T00:56:07;98523.14;;;4.24;70.28
34235;BME280;20500;49.856;20.290;2023-01-15T00:59:13;98517.27;;;4.32;70.18
34235;BME280;20500;49.856;20.290;2023-01-15T01:02:20;98509.59;;;4.38;69.77
34235;BME280;20500;49.856;20.290;2023-01-15T01:05:26;98506.81;;;4.45;69.86
34235;BME280;20500;49.856;20.290;2023-01-15T01:08:32;98505.48;;;4.52;69.63
34235;BME280;20500;49.856;20.290;2023-01-15T01:11:38;98489.93;;;4.50;69.52
34235;BME280;20500;49.856;20.290;2023-01-15T01:14:44;98480.14;;;4.52;69.44
34235;BME280;20500;49.856;20.290;2023-01-15T01:17:50;98470.10;;;4.52;69.30
34235;BME280;20500;49.856;20.290;2023-01-15T01:20:56;98464.84;;;4.56;69.26
34235;BME280;20500;49.856;20.290;2023-01-15T01:24:02;98449.63;;;4.59;69.28
34235;BME280;20500;49.856;20.290;2023-01-15T01:27:06;98451.24;;;4.60;69.10
34235;BME280;20500;49.856;20.290;2023-01-15T01:30:15;98443.20;;;4.67;69.00
34235;BME280;20500;49.856;20.290;2023-01-15T01:33:20;98434.80;;;4.70;68.83
34235;BME280;20500;49.856;20.290;2023-01-15T01:36:29;98425.24;;;4.69;68.81
34235;BME280;20500;49.856;20.290;2023-01-15T01:39:35;98416.13;;;4.70;68.63
34235;BME280;20500;49.856;20.290;2023-01-15T01:42:41;98403.64;;;4.67;68.52
34235;BME280;20500;49.856;20.290;2023-01-15T01:45:48;98403.91;;;4.67;68.31
34235;BME280;20500;49.856;20.290;2023-01-15T01:48:56;98398.96;;;4.67;68.14
34235;BME280;20500;49.856;20.290;2023-01-15T01:52:08;98383.93;;;4.67;67.98
34235;BME280;20500;49.856;20.290;2023-01-15T01:55:17;98382.52;;;4.67;68.04
34235;BME280;20500;49.856;20.290;2023-01-15T01:58:29;98382.05;;;4.71;68.03
34235;BME280;20500;49.856;20.290;2023-01-15T02:01:36;98377.41;;;4.79;67.92
34235;BME280;20500;49.856;20.290;2023-01-15T02:04:42;98371.28;;;4.90;67.66
34235;BME280;20500;49.856;20.290;2023-01-15T02:07:48;98374.05;;;5.01;67.37
34235;BME280;20500;49.856;20.290;2023-01-15T02:10:56;98362.92;;;5.10;67.24
34235;BME280;20500;49.856;20.290;2023-01-15T02:14:07;98365.93;;;5.22;67.20
34235;BME280;20500;49.856;20.290;2023-01-15T02:17:17;98371.57;;;5.37;67.07
34235;BME280;20500;49.856;20.290;2023-01-15T02:20:30;98372.46;;;5.45;66.70
34235;BME280;20500;49.856;20.290;2023-01-15T02:24:04;98375.23;;;5.51;66.55
34235;BME280;20500;49.856;20.290;2023-01-15T02:27:13;98380.59;;;5.48;66.06
34235;BME280;20500;49.856;20.290;2023-01-15T02:30:25;98385.09;;;5.48;66.25
34235;BME280;20500;49.856;20.290;2023-01-15T02:33:36;98376.12;;;5.51;66.03
34235;BME280;20500;49.856;20.290;2023-01-15T02:36:46;98374.30;;;5.53;65.77
34235;BME280;20500;49.856;20.290;2023-01-15T02:39:56;98359.03;;;5.50;65.88
34235;BME280;20500;49.856;20.290;2023-01-15T02:43:05;98362.55;;;5.58;65.75
34235;BME280;20500;49.856;20.290;2023-01-15T02:46:14;98364.89;;;5.68;65.64
34235;BME280;20500;49.856;20.290;2023-01-15T02:49:22;98357.97;;;5.79;65.25
34235;BME280;20500;49.856;20.290;2023-01-15T02:52:30;98354.52;;;5.89;65.22
34235;BME280;20500;49.856;20.290;2023-01-15T02:55:42;98346.24;;;5.97;64.96
34235;BME280;20500;49.856;20.290;2023-01-15T02:58:51;98345.29;;;6.03;64.78
34235;BME280;20500;49.856;20.290;2023-01-15T03:02:00;98346.16;;;6.08;64.81
34235;BME280;20500;49.856;20.290;2023-01-15T03:05:10;98336.21;;;6.18;64.57
34235;BME280;20500;49.856;20.290;2023-01-15T03:08:17;98331.39;;;6.27;64.41
34235;BME280;20500;49.856;20.290;2023-01-15T03:11:23;98332.23;;;6.30;64.25
34235;BME280;20500;49.856;20.290;2023-01-15T03:14:34;98329.59;;;6.33;64.03
34235;BME280;20500;49.856;20.290;2023-01-15T03:17:48;98337.71;;;6.36;63.80
34235;BME280;20500;49.856;20.290;2023-01-15T03:21:02;98339.54;;;6.36;63.79
34235;BME280;20500;49.856;20.290;2023-01-15T03:24:10;98342.58;;;6.33;63.74
34235;BME280;20500;49.856;20.290;2023-01-15T03:27:17;98346.10;;;6.32;63.68
34235;BME280;20500;49.856;20.290;2023-01-15T03:30:22;98338.00;;;6.34;63.48
34235;BME280;20500;49.856;20.290;2023-01-15T03:33:29;98328.13;;;6.37;63.49
34235;BME280;20500;49.856;20.290;2023-01-15T03:36:35;98326.34;;;6.43;63.22
34235;BME280;20500;49.856;20.290;2023-01-15T03:39:42;98323.11;;;6.49;63.16
34235;BME280;20500;49.856;20.290;2023-01-15T03:42:53;98321.85;;;6.57;63.15
34235;BME280;20500;49.856;20.290;2023-01-15T03:46:45;98325.11;;;6.65;62.99
34235;BME280;20500;49.856;20.290;2023-01-15T03:49:58;98331.16;;;6.70;62.97
34235;BME280;20500;49.856;20.290;2023-01-15T03:53:11;98333.21;;;6.70;62.72
34235;BME280;20500;49.856;20.290;2023-01-15T03:56:23;98343.35;;;6.69;62.57
34235;BME280;20500;49.856;20.290;2023-01-15T03:59:36;98346.70;;;6.71;62.52
34235;BME280;20500;49.856;20.290;2023-01-15T04:02:45;98340.93;;;6.71;62.50
34235;BME280;20500;49.856;20.290;2023-01-15T04:05:52;98332.69;;;6.72;62.50
34235;BME280;20500;49.856;20.290;2023-01-15T04:08:59;98321.50;;;6.72;62.23
34235;BME280;20500;49.856;20.290;2023-01-15T04:12:08;98309.93;;;6.71;62.04
34235;BME280;20500;49.856;20.290;2023-01-15T04:15:15;98306.72;;;6.71;61.95
34235;BME280;20500;49.856;20.290;2023-01-15T04:18:21;98293.73;;;6.71;61.85
34235;BME280;20500;49.856;20.290;2023-01-15T04:21:27;98280.90;;;6.70;61.96
34235;BME280;20500;49.856;20.290;2023-01-15T04:24:33;98277.89;;;6.71;61.89
34235;BME280;20500;49.856;20.290;2023-01-15T04:27:38;98274.04;;;6.72;61.80
34235;BME280;20500;49.856;20.290;2023-01-15T04:30:44;98273.32;;;6.73;61.43
34235;BME280;20500;49.856;20.290;2023-01-15T04:33:50;98270.70;;;6.74;61.47
34235;BME280;20500;49.856;20.290;2023-01-15T04:36:56;98257.77;;;6.73;61.58
34235;BME280;20500;49.856;20.290;2023-01-15T04:40:03;98245.84;;;6.77;61.56
34235;BME280;20500;49.856;20.290;2023-01-15T04:43:10;98240.86;;;6.79;61.53
34235;BME280;20500;49.856;20.290;2023-01-15T04:46:35;98226.55;;;6.79;61.48
34235;BME280;20500;49.856;20.290;2023-01-15T04:49:42;98213.62;;;6.82;61.26
34235;BME280;20500;49.856;20.290;2023-01-15T04:52:48;98209.02;;;6.86;61.21
34235;BME280;20500;49.856;20.290;2023-01-15T04:56:00;98209.64;;;6.85;61.07
34235;BME280;20500;49.856;20.290;2023-01-15T04:59:06;98208.48;;;6.81;61.05
34235;BME280;20500;49.856;20.290;2023-01-15T05:02:11;98204.69;;;6.81;60.70
34235;BME280;20500;49.856;20.290;2023-01-15T05:05:19;98198.95;;;6.79;60.79
34235;BME280;20500;49.856;20.290;2023-01-15T05:08:24;98195.68;;;6.78;60.71
34235;BME280;20500;49.856;20.290;2023-01-15T05:11:30;98189.25;;;6.76;60.60
34235;BME280;20500;49.856;20.290;2023-01-15T05:14:38;98186.98;;;6.73;60.64
34235;BME280;20500;49.856;20.290;2023-01-15T05:17:44;98182.52;;;6.71;60.59
34235;BME280;20500;49.856;20.290;2023-01-15T05:20:53;98183.56;;;6.73;60.41
34235;BME280;20500;49.856;20.290;2023-01-15T05:24:00;98176.95;;;6.75;60.34
34235;BME280;20500;49.856;20.290;2023-01-15T05:27:07;98172.11;;;6.78;60.32
34235;BME280;20500;49.856;20.290;2023-01-15T05:30:14;98164.20;;;6.79;60.35
34235;BME280;20500;49.856;20.290;2023-01-15T05:33:20;98165.06;;;6.81;60.24
34235;BME280;20500;49.856;20.290;2023-01-15T05:36:28;98169.46;;;6.80;60.00
34235;BME280;20500;49.856;20.290;2023-01-15T05:39:34;98169.54;;;6.75;60.03
34235;BME280;20500;49.856;20.290;2023-01-15T05:42:38;98164.77;;;6.70;60.04
34235;BME280;20500;49.856;20.290;2023-01-15T05:45:44;98164.58;;;6.64;59.86
34235;BME280;20500;49.856;20.290;2023-01-15T05:48:50;98157.42;;;6.57;59.89
34235;BME280;20500;49.856;20.290;2023-01-15T05:51:57;98153.79;;;6.50;59.86
34235;BME280;20500;49.856;20.290;2023-01-15T05:55:05;98152.09;;;6.41;59.90
34235;BME280;20500;49.856;20.290;2023-01-15T05:58:11;98149.86;;;6.34;59.91
34235;BME280;20500;49.856;20.290;2023-01-15T06:01:17;98146.69;;;6.27;59.93
34235;BME280;20500;49.856;20.290;2023-01-15T06:04:24;98146.52;;;6.21;60.11
34235;BME280;20500;49.856;20.290;2023-01-15T06:07:30;98148.63;;;6.12;59.92
34235;BME280;20500;49.856;20.290;2023-01-15T06:10:36;98151.00;;;6.04;59.91
34235;BME280;20500;49.856;20.290;2023-01-15T06:13:41;98151.60;;;5.97;59.79
34235;BME280;20500;49.856;20.290;2023-01-15T06:16:47;98143.19;;;5.92;59.87
34235;BME280;20500;49.856;20.290;2023-01-15T06:19:53;98143.33;;;5.87;59.83
34235;BME280;20500;49.856;20.290;2023-01-15T06:22:59;98141.66;;;5.82;59.96
34235;BME280;20500;49.856;20.290;2023-01-15T06:26:06;98136.68;;;5.79;59.79
34235;BME280;20500;49.856;20.290;2023-01-15T06:29:13;98134.33;;;5.76;59.73
34235;BME280;20500;49.856;20.290;2023-01-15T06:32:22;98127.65;;;5.73;59.74
34235;BME280;20500;49.856;20.290;2023-01-15T06:35:28;98125.73;;;5.71;59.81
34235;BME280;20500;49.856;20.290;2023-01-15T06:38:34;98131.08;;;5.68;59.86
34235;BME280;20500;49.856;20.290;2023-01-15T06:41:40;98134.44;;;5.66;59.97
34235;BME280;20500;49.856;20.290;2023-01-15T06:45:05;98134.44;;;5.62;59.87
34235;BME280;20500;49.856;20.290;2023-01-15T06:48:55;98123.92;;;5.58;59.87
34235;BME280;20500;49.856;20.290;2023-01-15T06:52:02;98122.91;;;5.56;60.00
34235;BME280;20500;49.856;20.290;2023-01-15T06:55:10;98118.48;;;5.52;59.91
34235;BME280;20500;49.856;20.290;2023-01-15T06:58:16;98119.06;;;5.50;60.09
34235;BME280;20500;49.856;20.290;2023-01-15T07:01:22;98119.40;;;5.49;60.25
34235;BME280;20500;49.856;20.290;2023-01-15T07:04:28;98111.89;;;5.47;60.05
34235;BME280;20500;49.856;20.290;2023-01-15T07:07:34;98112.09;;;5.47;60.20
34235;BME280;20500;49.856;20.290;2023-01-15T07:10:40;98116.60;;;5.48;60.30
34235;BME280;20500;49.856;20.290;2023-01-15T07:13:46;98112.35;;;5.49;60.20
34235;BME280;20500;49.856;20.290;2023-01-15T07:16:53;98113.48;;;5.52;60.17
34235;BME280;20500;49.856;20.290;2023-01-15T07:19:59;98110.92;;;5.54;60.24
34235;BME280;20500;49.856;20.290;2023-01-15T07:23:05;98116.34;;;5.57;60.23
34235;BME280;20500;49.856;20.290;2023-01-15T07:26:11;98108.64;;;5.60;60.32
34235;BME280;20500;49.856;20.290;2023-01-15T07:29:17;98105.33;;;5.64;60.36
34235;BME280;20500;49.856;20.290;2023-01-15T07:32:22;98105.78;;;5.68;60.58
34235;BME280;20500;49.856;20.290;2023-01-15T07:35:28;98106.00;;;5.72;60.63
34235;BME280;20500;49.856;20.290;2023-01-15T07:38:34;98108.08;;;5.76;60.66
34235;BME280;20500;49.856;20.290;2023-01-15T07:41:40;98107.61;;;5.79;60.76
34235;BME280;20500;49.856;20.290;2023-01-15T07:45:06;98102.45;;;5.85;60.71
34235;BME280;20500;49.856;20.290;2023-01-15T07:48:30;98091.73;;;5.91;60.75
34235;BME280;20500;49.856;20.290;2023-01-15T07:51:54;98090.41;;;5.97;60.83
34235;BME280;20500;49.856;20.290;2023-01-15T07:55:00;98093.52;;;6.01;60.96
34235;BME280;20500;49.856;20.290;2023-01-15T07:58:07;98099.90;;;6.05;60.76
34235;BME280;20500;49.856;20.290;2023-01-15T08:01:13;98102.48;;;6.09;60.88
34235;BME280;20500;49.856;20.290;2023-01-15T08:04:18;98102.55;;;6.13;60.72
34235;BME280;20500;49.856;20.290;2023-01-15T08:07:24;98099.66;;;6.16;60.64
34235;BME280;20500;49.856;20.290;2023-01-15T08:10:30;98100.17;;;6.19;60.64
34235;BME280;20500;49.856;20.290;2023-01-15T08:13:56;98100.08;;;6.22;60.81
34235;BME280;20500;49.856;20.290;2023-01-15T08:17:20;98101.72;;;6.23;60.76
34235;BME280;20500;49.856;20.290;2023-01-15T08:20:26;98099.06;;;6.24;60.78
34235;BME280;20500;49.856;20.290;2023-01-15T08:23:32;98100.45;;;6.26;60.75
34235;BME280;20500;49.856;20.290;2023-01-15T08:26:38;98102.46;;;6.27;60.71
34235;BME280;20500;49.856;20.290;2023-01-15T08:29:44;98105.45;;;6.30;60.70
34235;BME280;20500;49.856;20.290;2023-01-15T08:32:49;98102.98;;;6.33;60.57
34235;BME280;20500;49.856;20.290;2023-01-15T08:35:57;98097.23;;;6.37;60.51
34235;BME280;20500;49.856;20.290;2023-01-15T08:39:04;98094.36;;;6.42;60.58
34235;BME280;20500;49.856;20.290;2023-01-15T08:42:10;98102.98;;;6.46;60.55
34235;BME280;20500;49.856;20.290;2023-01-15T08:45:16;98100.31;;;6.51;60.67
34235;BME280;20500;49.856;20.290;2023-01-15T08:48:20;98090.11;;;6.55;60.73
34235;BME280;20500;49.856;20.290;2023-01-15T08:51:26;98092.19;;;6.58;60.68
34235;BME280;20500;49.856;20.290;2023-01-15T08:54:32;98095.89;;;6.65;60.68
34235;BME280;20500;49.856;20.290;2023-01-15T08:57:38;98093.95;;;6.74;60.79
34235;BME280;20500;49.856;20.290;2023-01-15T09:00:44;98085.23;;;6.82;60.80
34235;BME280;20500;49.856;20.290;2023-01-15T09:03:50;98078.60;;;6.90;60.59
34235;BME280;20500;49.856;20.290;2023-01-15T09:06:56;98076.09;;;6.97;60.60
34235;BME280;20500;49.856;20.290;2023-01-15T09:10:02;98072.76;;;7.03;60.58
34235;BME280;20500;49.856;20.290;2023-01-15T09:13:08;98068.63;;;7.11;60.79
34235;BME280;20500;49.856;20.290;2023-01-15T09:16:13;98061.14;;;7.17;60.75
34235;BME280;20500;49.856;20.290;2023-01-15T09:19:21;98057.79;;;7.24;60.72
34235;BME280;20500;49.856;20.290;2023-01-15T09:22:26;98057.96;;;7.30;60.73
34235;BME280;20500;49.856;20.290;2023-01-15T09:25:34;98053.13;;;7.36;60.55
34235;BME280;20500;49.856;20.290;2023-01-15T09:28:40;98042.67;;;7.42;60.47
34235;BME280;20500;49.856;20.290;2023-01-15T09:31:46;98029.80;;;7.48;60.59
34235;BME280;20500;49.856;20.290;2023-01-15T09:34:52;98028.83;;;7.54;60.48
34235;BME280;20500;49.856;20.290;2023-01-15T09:37:57;98028.39;;;7.61;60.60
34235;BME280;20500;49.856;20.290;2023-01-15T09:41:09;98019.77;;;7.67;60.56
34235;BME280;20500;49.856;20.290;2023-01-15T09:44:54;98022.67;;;7.71;60.52
34235;BME280;20500;49.856;20.290;2023-01-15T09:48:17;98017.25;;;7.74;60.54
34235;BME280;20500;49.856;20.290;2023-01-15T09:51:29;98002.39;;;7.75;60.62
34235;BME280;20500;49.856;20.290;2023-01-15T09:54:47;98006.38;;;7.77;60.81
34235;BME280;20500;49.856;20.290;2023-01-15T09:57:56;98006.83;;;7.78;60.71
34235;BME280;20500;49.856;20.290;2023-01-15T10:01:04;98010.95;;;7.76;60.70
34235;BME280;20500;49.856;20.290;2023-01-15T10:04:16;98017.29;;;7.76;60.78
34235;BME280;20500;49.856;20.290;2023-01-15T10:07:33;98009.08;;;7.77;60.82
34235;BME280;20500;49.856;20.290;2023-01-15T10:10:45;98003.08;;;7.77;60.87
34235;BME280;20500;49.856;20.290;2023-01-15T10:13:55;98005.57;;;7.76;60.83
34235;BME280;20500;49.856;20.290;2023-01-15T10:17:04;98008.91;;;7.76;60.77
34235;BME280;20500;49.856;20.290;2023-01-15T10:20:28;98014.04;;;7.76;60.76
34235;BME280;20500;49.856;20.290;2023-01-15T10:23:47;98009.04;;;7.77;60.91
34235;BME280;20500;49.856;20.290;2023-01-15T10:26:57;98009.88;;;7.78;60.95
34235;BME280;20500;49.856;20.290;2023-01-15T10:30:07;98009.48;;;7.78;60.86
34235;BME280;20500;49.856;20.290;2023-01-15T10:33:34;97999.87;;;7.77;60.78
34235;BME280;20500;49.856;20.290;2023-01-15T10:36:45;97992.49;;;7.77;60.78
34235;BME280;20500;49.856;20.290;2023-01-15T10:40:08;97999.59;;;7.75;60.72
34235;BME280;20500;49.856;20.290;2023-01-15T10:43:21;97999.02;;;7.72;60.82
34235;BME280;20500;49.856;20.290;2023-01-15T10:46:31;97992.61;;;7.70;60.92
34235;BME280;20500;49.856;20.290;2023-01-15T10:49:43;97992.86;;;7.69;60.95
34235;BME280;20500;49.856;20.290;2023-01-15T10:52:55;97993.52;;;7.69;60.82
34235;BME280;20500;49.856;20.290;2023-01-15T10:56:06;98000.80;;;7.68;60.88
34235;BME280;20500;49.856;20.290;2023-01-15T10:59:17;98002.77;;;7.68;60.78
34235;BME280;20500;49.856;20.290;2023-01-15T11:02:29;98005.89;;;7.71;60.94
34235;BME280;20500;49.856;20.290;2023-01-15T11:05:38;97998.38;;;7.74;60.90
34235;BME280;20500;49.856;20.290;2023-01-15T11:08:46;97991.63;;;7.78;60.97
34235;BME280;20500;49.856;20.290;2023-01-15T11:12:26;97986.43;;;7.84;60.83
34235;BME280;20500;49.856;20.290;2023-01-15T11:15:51;97978.45;;;7.90;60.66
34235;BME280;20500;49.856;20.290;2023-01-15T11:19:26;97977.55;;;7.94;60.52
34235;BME280;20500;49.856;20.290;2023-01-15T11:22:42;97980.14;;;7.98;60.41
34235;BME280;20500;49.856;20.290;2023-01-15T11:25:53;97978.67;;;8.01;60.33
34235;BME280;20500;49.856;20.290;2023-01-15T11:29:11;97979.70;;;8.03;60.28
34235;BME280;20500;49.856;20.290;2023-01-15T11:32:26;97981.73;;;8.04;60.40
34235;BME280;20500;49.856;20.290;2023-01-15T11:35:33;97976.81;;;8.04;60.38
34235;BME280;20500;49.856;20.290;2023-01-15T11:38:46;97968.98;;;8.03;60.22
34235;BME280;20500;49.856;20.290;2023-01-15T11:41:59;97978.07;;;8.03;60.11
34235;BME280;20500;49.856;20.290;2023-01-15T11:45:23;97970.98;;;8.03;60.04
34235;BME280;20500;49.856;20.290;2023-01-15T11:48:48;97969.02;;;8.03;60.07
34235;BME280;20500;49.856;20.290;2023-01-15T11:52:15;97963.64;;;8.01;59.78
34235;BME280;20500;49.856;20.290;2023-01-15T11:55:25;97958.75;;;7.98;59.63
34235;BME280;20500;49.856;20.290;2023-01-15T11:58:33;97949.67;;;7.96;59.66
34235;BME280;20500;49.856;20.290;2023-01-15T12:01:50;97949.54;;;7.94;59.52
34235;BME280;20500;49.856;20.290;2023-01-15T12:05:04;97945.02;;;7.93;59.43
34235;BME280;20500;49.856;20.290;2023-01-15T12:08:18;97943.71;;;7.91;59.53
34235;BME280;20500;49.856;20.290;2023-01-15T12:11:43;97933.95;;;7.90;59.39
34235;BME280;20500;49.856;20.290;2023-01-15T12:15:15;97933.67;;;7.88;59.21
34235;BME280;20500;49.856;20.290;2023-01-15T12:22:15;97931.25;;;7.83;59.25
34235;BME280;20500;49.856;20.290;2023-01-15T12:25:36;97921.55;;;7.79;59.42
34235;BME280;20500;49.856;20.290;2023-01-15T12:28:52;97923.14;;;7.74;59.32
34235;BME280;20500;49.856;20.290;2023-01-15T12:32:04;97928.27;;;7.69;59.45
34235;BME280;20500;49.856;20.290;2023-01-15T12:35:16;97926.05;;;7.61;59.75
34235;BME280;20500;49.856;20.290;2023-01-15T12:38:33;97923.59;;;7.52;60.21
34235;BME280;20500;49.856;20.290;2023-01-15T12:41:47;97919.04;;;7.37;60.43
34235;BME280;20500;49.856;20.290;2023-01-15T12:45:15;97910.07;;;7.16;60.57
34235;BME280;20500;49.856;20.290;2023-01-15T12:48:28;97901.59;;;7.02;60.64
34235;BME280;20500;49.856;20.290;2023-01-15T12:51:44;97896.19;;;6.90;60.96
34235;BME280;20500;49.856;20.290;2023-01-15T12:54:59;97898.70;;;6.82;61.13
34235;BME280;20500;49.856;20.290;2023-01-15T12:58:16;97898.91;;;6.79;61.23
34235;BME280;20500;49.856;20.290;2023-01-15T13:01:33;97895.14;;;6.73;61.22
34235;BME280;20500;49.856;20.290;2023-01-15T13:04:45;97890.61;;;6.66;61.54
34235;BME280;20500;49.856;20.290;2023-01-15T13:07:57;97891.77;;;6.57;61.82
34235;BME280;20500;49.856;20.290;2023-01-15T13:11:08;97892.46;;;6.50;61.87
34235;BME280;20500;49.856;20.290;2023-01-15T13:14:16;97886.93;;;6.42;61.92
34235;BME280;20500;49.856;20.290;2023-01-15T13:17:31;97886.73;;;6.40;62.13
34235;BME280;20500;49.856;20.290;2023-01-15T13:20:44;97886.77;;;6.42;62.42
34235;BME280;20500;49.856;20.290;2023-01-15T13:24:10;97886.45;;;6.43;62.78
34235;BME280;20500;49.856;20.290;2023-01-15T13:27:31;97883.45;;;6.44;63.01
34235;BME280;20500;49.856;20.290;2023-01-15T13:30:47;97873.13;;;6.43;63.10
34235;BME280;20500;49.856;20.290;2023-01-15T13:33:59;97870.76;;;6.40;63.44
34235;BME280;20500;49.856;20.290;2023-01-15T13:37:15;97860.77;;;6.39;63.41
34235;BME280;20500;49.856;20.290;2023-01-15T13:40:28;97867.44;;;6.38;63.56
34235;BME280;20500;49.856;20.290;2023-01-15T13:43:37;97860.95;;;6.41;63.90
34235;BME280;20500;49.856;20.290;2023-01-15T13:46:45;97856.30;;;6.43;63.93
34235;BME280;20500;49.856;20.290;2023-01-15T13:49:54;97856.04;;;6.40;64.02
34235;BME280;20500;49.856;20.290;2023-01-15T13:53:23;97858.85;;;6.42;64.51
34235;BME280;20500;49.856;20.290;2023-01-15T13:56:32;97854.96;;;6.42;64.62
34235;BME280;20500;49.856;20.290;2023-01-15T13:59:44;97851.67;;;6.43;64.70
34235;BME280;20500;49.856;20.290;2023-01-15T14:02:54;97855.95;;;6.42;64.92
34235;BME280;20500;49.856;20.290;2023-01-15T14:06:03;97852.74;;;6.38;65.08
34235;BME280;20500;49.856;20.290;2023-01-15T14:09:13;97843.25;;;6.38;65.34
34235;BME280;20500;49.856;20.290;2023-01-15T14:12:36;97835.91;;;6.33;65.43
34235;BME280;20500;49.856;20.290;2023-01-15T14:15:53;97831.27;;;6.29;65.58
34235;BME280;20500;49.856;20.290;2023-01-15T14:19:17;97828.44;;;6.26;65.76
34235;BME280;20500;49.856;20.290;2023-01-15T14:22:38;97827.64;;;6.25;65.85
34235;BME280;20500;49.856;20.290;2023-01-15T14:25:57;97827.77;;;6.26;65.83
34235;BME280;20500;49.856;20.290;2023-01-15T14:32:47;97838.48;;;6.16;66.09
34235;BME280;20500;49.856;20.290;2023-01-15T14:35:57;97843.34;;;6.19;66.19
34235;BME280;20500;49.856;20.290;2023-01-15T14:39:05;97842.20;;;6.21;66.34
34235;BME280;20500;49.856;20.290;2023-01-15T14:42:22;97839.58;;;6.17;66.25
34235;BME280;20500;49.856;20.290;2023-01-15T14:45:48;97835.85;;;6.16;66.62
34235;BME280;20500;49.856;20.290;2023-01-15T14:48:56;97835.36;;;6.14;66.66
34235;BME280;20500;49.856;20.290;2023-01-15T14:52:03;97829.75;;;6.11;66.69
34235;BME280;20500;49.856;20.290;2023-01-15T14:55:11;97826.97;;;6.08;66.83
34235;BME280;20500;49.856;20.290;2023-01-15T14:58:30;97825.35;;;6.06;67.10
34235;BME280;20500;49.856;20.290;2023-01-15T15:01:43;97828.27;;;5.99;67.22
34235;BME280;20500;49.856;20.290;2023-01-15T15:04:53;97827.73;;;5.99;67.36
34235;BME280;20500;49.856;20.290;2023-01-15T15:08:00;97825.14;;;6.00;67.43
34235;BME280;20500;49.856;20.290;2023-01-15T15:11:19;97815.00;;;5.96;67.50
34235;BME280;20500;49.856;20.290;2023-01-15T15:14:48;97808.81;;;5.91;67.58
34235;BME280;20500;49.856;20.290;2023-01-15T15:18:00;97806.52;;;5.90;67.54
34235;BME280;20500;49.856;20.290;2023-01-15T15:21:14;97797.64;;;5.88;67.72
34235;BME280;20500;49.856;20.290;2023-01-15T15:24:25;97801.95;;;5.84;67.86
34235;BME280;20500;49.856;20.290;2023-01-15T15:27:32;97802.94;;;5.86;67.79
34235;BME280;20500;49.856;20.290;2023-01-15T15:30:39;97802.45;;;5.87;67.98
34235;BME280;20500;49.856;20.290;2023-01-15T15:33:47;97803.08;;;5.85;67.89
34235;BME280;20500;49.856;20.290;2023-01-15T15:36:53;97803.98;;;5.83;68.07
34235;BME280;20500;49.856;20.290;2023-01-15T15:40:03;97803.68;;;5.86;68.22
34235;BME280;20500;49.856;20.290;2023-01-15T15:43:15;97801.17;;;5.87;68.31
34235;BME280;20500;49.856;20.290;2023-01-15T15:46:49;97805.16;;;5.82;68.34
34235;BME280;20500;49.856;20.290;2023-01-15T15:50:24;97804.07;;;5.81;68.48
34235;BME280;20500;49.856;20.290;2023-01-15T15:53:31;97802.17;;;5.85;68.55
34235;BME280;20500;49.856;20.290;2023-01-15T15:56:38;97802.23;;;5.86;68.75
34235;BME280;20500;49.856;20.290;2023-01-15T15:59:47;97793.83;;;5.85;68.85
34235;BME280;20500;49.856;20.290;2023-01-15T16:02:55;97788.52;;;5.83;68.85
34235;BME280;20500;49.856;20.290;2023-01-15T16:06:00;97783.67;;;5.82;68.89
34235;BME280;20500;49.856;20.290;2023-01-15T16:09:10;97785.80;;;5.79;69.05
34235;BME280;20500;49.856;20.290;2023-01-15T16:12:17;97782.13;;;5.81;69.08
34235;BME280;20500;49.856;20.290;2023-01-15T16:15:26;97782.95;;;5.80;68.98
34235;BME280;20500;49.856;20.290;2023-01-15T16:18:35;97776.80;;;5.76;69.21
34235;BME280;20500;49.856;20.290;2023-01-15T16:21:44;97774.42;;;5.73;69.43
34235;BME280;20500;49.856;20.290;2023-01-15T16:24:58;97775.77;;;5.71;69.44
34235;BME280;20500;49.856;20.290;2023-01-15T16:28:04;97775.69;;;5.73;69.40
34235;BME280;20500;49.856;20.290;2023-01-15T16:31:11;97772.80;;;5.77;69.72
34235;BME280;20500;49.856;20.290;2023-01-15T16:34:21;97772.42;;;5.76;69.74
34235;BME280;20500;49.856;20.290;2023-01-15T16:37:30;97772.98;;;5.78;69.82
34235;BME280;20500;49.856;20.290;2023-01-15T16:40:39;97777.22;;;5.78;69.98
34235;BME280;20500;49.856;20.290;2023-01-15T16:43:54;97775.65;;;5.79;69.92
34235;BME280;20500;49.856;20.290;2023-01-15T16:47:01;97780.08;;;5.77;70.14
34235;BME280;20500;49.856;20.290;2023-01-15T16:50:28;97783.27;;;5.79;70.18
34235;BME280;20500;49.856;20.290;2023-01-15T16:53:40;97783.17;;;5.83;70.18
34235;BME280;20500;49.856;20.290;2023-01-15T16:56:54;97789.29;;;5.84;70.08
34235;BME280;20500;49.856;20.290;2023-01-15T17:00:06;97789.59;;;5.85;70.38